METAR Data
IDs: Format: Raw Decoded Include TAF

Data at: 1603 UTC 18 Aug 2019

PATK 181553Z AUTO 05009G16KT 10SM CLR 13/M01 A3017 RMK AO2 SLP218 T01281006 TSNO
PATK 181453Z AUTO 00000KT 10SM CLR 09/01 A3018 RMK AO2 SLP223 T00890006 57009 TSNO
PATK 181353Z AUTO 32007KT 10SM CLR 11/00 A3019 RMK AO2 SLP226 T01060000 TSNO
PATK 181253Z AUTO VRB05KT 10SM CLR 11/00 A3020 RMK AO2 SLP230 T01060000 TSNO
PATK 181153Z AUTO 36005KT 10SM CLR 12/M01 A3021 RMK AO2 SLP233 T01171006 10161 20117 58014 TSNO
PATK 181053Z AUTO 36006KT 10SM CLR 12/M01 A3023 RMK AO2 SLP238 T01221006 TSNO
PATK 180953Z AUTO 02008KT 10SM CLR 12/M01 A3024 RMK AO2 SLP243 T01221006 TSNO
PATK 180853Z AUTO 04009KT 10SM CLR 13/M01 A3025 RMK AO2 SLP247 T01281006 402170100 52002 TSNO
PATK 180753Z AUTO 01006KT 10SM CLR 14/M01 A3026 RMK AO2 SLP249 T01391006 TSNO
PATK 180653Z AUTO 04011G19KT 10SM CLR 16/M01 A3024 RMK AO2 SLP242 T01561011 TSNO
PATK 180553Z AUTO 02010G17KT 10SM CLR 16/M01 A3025 RMK AO2 SLP244 T01611006 10217 20161 53005 TSNO
PATK 180453Z AUTO 02009KT 10SM CLR 18/M01 A3024 RMK AO2 SLP242 T01781006 TSNO
PATK 180353Z AUTO 01010G23KT 340V040 10SM CLR 19/00 A3023 RMK AO2 SLP240 T01890000 TSNO
PATK 180253Z AUTO 01009G19KT 340V040 10SM CLR 20/01 A3023 RMK AO2 SLP239 T02000006 56005 TSNO
PATK 180153Z AUTO 02012G22KT 330V040 10SM CLR 21/01 A3023 RMK AO2 SLP240 T02110011 TSNO
PATK 180053Z 02014G21KT 10SM CLR 21/01 A3024 RMK AO2 SLP243 T02110011
PATK 172353Z 01012G26KT 10SM CLR 21/02 A3025 RMK AO2 PK WND 03026/2345 SLP244 T02110017 10211 20167 57009
PATK 172253Z 01011G22KT 10SM CLR 21/02 A3025 RMK AO2 SLP246 T02060017
PATK 172153Z 01012G22KT 10SM CLR 21/02 A3026 RMK AO2 PK WND 03026/2114 SLP249 T02060017
PATK 172053Z 01014G22KT 10SM CLR 20/02 A3027 RMK AO2 SLP253 T02000017 58001
PATK 171953Z 03010G19KT 10SM CLR 19/02 A3028 RMK AO2 SLP255 T01890022
PATK 171853Z 03010G20KT 10SM CLR 18/02 A3028 RMK AO2 SLP257 T01780017
PATK 171753Z 03016G23KT 10SM CLR 17/02 A3027 RMK AO2 SLP254 T01670022 10167 20100 51011
PATK 171653Z 02006KT 10SM CLR 14/02 A3026 RMK AO2 SLP250 T01440017
PATK 171553Z AUTO 03007G15KT 10SM CLR 13/01 A3025 RMK AO2 SLP247 T01280006 TSNO
PATK 171453Z AUTO 02006G15KT 10SM CLR 13/00 A3024 RMK AO2 SLP242 T01280000 51022 TSNO
PATK 171353Z AUTO 34006KT 10SM CLR 12/01 A3023 RMK AO2 SLP237 T01170006 TSNO
PATK 171253Z AUTO 03003KT 10SM CLR 10/03 A3021 RMK AO2 SLP230 T01000028 TSNO
PATK 171153Z AUTO 33003KT 10SM CLR 11/04 A3018 RMK AO2 SLP221 T01110039 10178 20111 51041 TSNO
PATK 171053Z AUTO 34005KT 10SM CLR 13/05 A3015 RMK AO2 SLP209 T01330050 TSNO
PATK 170953Z AUTO 03007G14KT 10SM BKN070 16/08 A3010 RMK AO2 SLP195 T01560083 TSNO
PATK 170853Z AUTO 02005KT 10SM FEW041 BKN065 OVC090 14/09 A3005 RMK AO2 SLP178 T01440094 402610128 53010 TSNO
PATK 170753Z AUTO 22003KT 10SM CLR 16/07 A3003 RMK AO2 SLP169 T01560067 TSNO
PATK 170653Z AUTO 19004KT 10SM CLR 16/09 A3003 RMK AO2 SLP170 T01560094 TSNO
PATK 170553Z AUTO 20004KT 10SM CLR 18/10 A3002 RMK AO2 SLP169 T01780100 10261 20178 58008 TSNO
PATK 170453Z AUTO VRB04KT 10SM CLR 20/11 A3004 RMK AO2 SLP174 T02000106 TSNO